sensor_id;sensor_type;location;lat;lon;timestamp;temperature;humidity
29775;DHT22;16676;51.202;6.774;2024-02-26T00:00:50;19.30;81.70
29775;DHT22;16676;51.202;6.774;2024-02-26T00:04:52;19.30;81.80
29775;DHT22;16676;51.202;6.774;2024-02-26T00:08:54;19.30;81.30
29775;DHT22;16676;51.202;6.774;2024-02-26T00:12:57;19.30;81.30
29775;DHT22;16676;51.202;6.774;2024-02-26T00:16:59;19.20;81.10
29775;DHT22;16676;51.202;6.774;2024-02-26T00:21:02;19.20;81.50
29775;DHT22;16676;51.202;6.774;2024-02-26T00:25:05;19.20;81.60
29775;DHT22;16676;51.202;6.774;2024-02-26T00:29:08;19.20;81.40
29775;DHT22;16676;51.202;6.774;2024-02-26T00:33:11;19.20;81.50
29775;DHT22;16676;51.202;6.774;2024-02-26T00:37:13;19.10;81.40
29775;DHT22;16676;51.202;6.774;2024-02-26T00:41:14;19.10;81.50
29775;DHT22;16676;51.202;6.774;2024-02-26T00:45:18;19.10;81.50
29775;DHT22;16676;51.202;6.774;2024-02-26T00:49:20;19.10;81.30
29775;DHT22;16676;51.202;6.774;2024-02-26T00:53:22;19.10;81.30
29775;DHT22;16676;51.202;6.774;2024-02-26T00:57:25;19.10;81.30
29775;DHT22;16676;51.202;6.774;2024-02-26T01:01:28;19.00;81.10
29775;DHT22;16676;51.202;6.774;2024-02-26T01:05:30;19.00;81.30
29775;DHT22;16676;51.202;6.774;2024-02-26T01:09:32;19.00;81.40
29775;DHT22;16676;51.202;6.774;2024-02-26T01:13:34;19.00;81.80
29775;DHT22;16676;51.202;6.774;2024-02-26T01:17:37;18.90;82.00
29775;DHT22;16676;51.202;6.774;2024-02-26T01:21:39;18.90;82.00
29775;DHT22;16676;51.202;6.774;2024-02-26T01:25:41;18.90;82.10
29775;DHT22;16676;51.202;6.774;2024-02-26T01:29:44;18.90;82.10
29775;DHT22;16676;51.202;6.774;2024-02-26T01:33:47;18.90;82.00
29775;DHT22;16676;51.202;6.774;2024-02-26T01:37:49;18.90;82.20
29775;DHT22;16676;51.202;6.774;2024-02-26T01:41:51;18.80;81.90
29775;DHT22;16676;51.202;6.774;2024-02-26T01:45:53;18.80;81.90
29775;DHT22;16676;51.202;6.774;2024-02-26T01:49:57;18.80;81.90
29775;DHT22;16676;51.202;6.774;2024-02-26T01:54:00;18.80;81.90
29775;DHT22;16676;51.202;6.774;2024-02-26T01:58:04;18.80;81.90
29775;DHT22;16676;51.202;6.774;2024-02-26T02:02:08;18.80;82.00
29775;DHT22;16676;51.202;6.774;2024-02-26T02:06:13;18.80;82.50
29775;DHT22;16676;51.202;6.774;2024-02-26T02:10:15;18.80;82.20
29775;DHT22;16676;51.202;6.774;2024-02-26T02:14:18;18.80;82.20
29775;DHT22;16676;51.202;6.774;2024-02-26T02:18:20;18.80;82.00
29775;DHT22;16676;51.202;6.774;2024-02-26T02:22:23;18.80;82.10
29775;DHT22;16676;51.202;6.774;2024-02-26T02:26:26;18.80;82.00
29775;DHT22;16676;51.202;6.774;2024-02-26T02:30:29;18.80;82.00
29775;DHT22;16676;51.202;6.774;2024-02-26T02:34:31;18.80;81.80
29775;DHT22;16676;51.202;6.774;2024-02-26T02:38:36;18.80;81.60
29775;DHT22;16676;51.202;6.774;2024-02-26T02:42:37;18.80;81.80
29775;DHT22;16676;51.202;6.774;2024-02-26T02:46:39;18.70;81.70
29775;DHT22;16676;51.202;6.774;2024-02-26T02:50:41;18.70;81.90
29775;DHT22;16676;51.202;6.774;2024-02-26T02:54:45;18.70;82.00
29775;DHT22;16676;51.202;6.774;2024-02-26T02:58:47;18.70;81.90
29775;DHT22;16676;51.202;6.774;2024-02-26T03:02:49;18.60;82.00
29775;DHT22;16676;51.202;6.774;2024-02-26T03:06:51;18.70;81.80
29775;DHT22;16676;51.202;6.774;2024-02-26T03:10:54;18.70;81.50
29775;DHT22;16676;51.202;6.774;2024-02-26T03:14:56;18.60;81.70
29775;DHT22;16676;51.202;6.774;2024-02-26T03:18:58;18.60;81.50
29775;DHT22;16676;51.202;6.774;2024-02-26T03:23:00;18.60;82.00
29775;DHT22;16676;51.202;6.774;2024-02-26T03:27:04;18.60;81.60
29775;DHT22;16676;51.202;6.774;2024-02-26T03:31:09;18.60;81.70
29775;DHT22;16676;51.202;6.774;2024-02-26T03:35:13;18.60;82.70
29775;DHT22;16676;51.202;6.774;2024-02-26T03:39:14;18.60;82.10
29775;DHT22;16676;51.202;6.774;2024-02-26T03:43:18;18.60;81.70
29775;DHT22;16676;51.202;6.774;2024-02-26T03:47:19;18.60;82.10
29775;DHT22;16676;51.202;6.774;2024-02-26T03:51:21;18.50;81.60
29775;DHT22;16676;51.202;6.774;2024-02-26T03:55:23;18.60;81.60
29775;DHT22;16676;51.202;6.774;2024-02-26T03:59:27;18.60;81.50
29775;DHT22;16676;51.202;6.774;2024-02-26T04:03:29;18.60;81.50
29775;DHT22;16676;51.202;6.774;2024-02-26T04:07:31;18.50;81.70
29775;DHT22;16676;51.202;6.774;2024-02-26T04:11:33;18.50;81.80
29775;DHT22;16676;51.202;6.774;2024-02-26T04:15:36;18.50;81.90
29775;DHT22;16676;51.202;6.774;2024-02-26T04:19:38;18.50;81.80
29775;DHT22;16676;51.202;6.774;2024-02-26T04:23:40;18.50;81.70
29775;DHT22;16676;51.202;6.774;2024-02-26T04:27:42;18.50;81.70
29775;DHT22;16676;51.202;6.774;2024-02-26T04:31:45;18.50;81.90
29775;DHT22;16676;51.202;6.774;2024-02-26T04:35:47;18.40;82.10
29775;DHT22;16676;51.202;6.774;2024-02-26T04:39:49;18.40;82.10
29775;DHT22;16676;51.202;6.774;2024-02-26T04:43:51;18.40;82.80
29775;DHT22;16676;51.202;6.774;2024-02-26T04:47:54;18.40;82.00
29775;DHT22;16676;51.202;6.774;2024-02-26T04:51:56;18.40;83.00
29775;DHT22;16676;51.202;6.774;2024-02-26T04:55:58;18.40;83.00
29775;DHT22;16676;51.202;6.774;2024-02-26T05:00:00;18.60;83.50
29775;DHT22;16676;51.202;6.774;2024-02-26T05:04:05;18.80;83.90
29775;DHT22;16676;51.202;6.774;2024-02-26T05:08:07;18.90;83.50
29775;DHT22;16676;51.202;6.774;2024-02-26T05:12:09;19.10;83.00
29775;DHT22;16676;51.202;6.774;2024-02-26T05:16:11;19.20;82.50
29775;DHT22;16676;51.202;6.774;2024-02-26T05:20:14;19.20;82.20
29775;DHT22;16676;51.202;6.774;2024-02-26T05:24:16;19.40;81.80
29775;DHT22;16676;51.202;6.774;2024-02-26T05:28:18;19.40;81.40
29775;DHT22;16676;51.202;6.774;2024-02-26T05:32:21;19.40;81.20
29775;DHT22;16676;51.202;6.774;2024-02-26T05:36:24;19.50;81.30
29775;DHT22;16676;51.202;6.774;2024-02-26T05:40:26;19.50;80.80
29775;DHT22;16676;51.202;6.774;2024-02-26T05:44:28;19.50;80.90
29775;DHT22;16676;51.202;6.774;2024-02-26T05:48:30;19.50;80.70
29775;DHT22;16676;51.202;6.774;2024-02-26T05:52:34;19.60;80.60
29775;DHT22;16676;51.202;6.774;2024-02-26T05:56:36;19.60;80.30
29775;DHT22;16676;51.202;6.774;2024-02-26T06:00:38;19.60;80.50
29775;DHT22;16676;51.202;6.774;2024-02-26T06:04:39;19.60;80.20
29775;DHT22;16676;51.202;6.774;2024-02-26T06:08:43;19.60;80.90
29775;DHT22;16676;51.202;6.774;2024-02-26T06:12:45;19.60;80.80
29775;DHT22;16676;51.202;6.774;2024-02-26T06:16:47;19.60;80.10
29775;DHT22;16676;51.202;6.774;2024-02-26T06:20:49;19.60;79.60
29775;DHT22;16676;51.202;6.774;2024-02-26T06:24:52;19.60;80.20
29775;DHT22;16676;51.202;6.774;2024-02-26T06:28:54;19.50;78.90
29775;DHT22;16676;51.202;6.774;2024-02-26T06:32:56;19.50;78.80
29775;DHT22;16676;51.202;6.774;2024-02-26T06:36:57;19.50;78.50
29775;DHT22;16676;51.202;6.774;2024-02-26T06:41:01;19.50;80.40
29775;DHT22;16676;51.202;6.774;2024-02-26T06:45:05;19.50;80.40
29775;DHT22;16676;51.202;6.774;2024-02-26T06:49:08;19.50;80.30
29775;DHT22;16676;51.202;6.774;2024-02-26T06:53:10;19.50;80.10
29775;DHT22;16676;51.202;6.774;2024-02-26T06:57:13;19.50;79.60
29775;DHT22;16676;51.202;6.774;2024-02-26T07:01:15;19.50;79.10
29775;DHT22;16676;51.202;6.774;2024-02-26T07:05:16;19.50;79.90
29775;DHT22;16676;51.202;6.774;2024-02-26T07:09:18;19.50;79.40
29775;DHT22;16676;51.202;6.774;2024-02-26T07:13:22;19.50;79.40
29775;DHT22;16676;51.202;6.774;2024-02-26T07:17:24;19.50;78.80
29775;DHT22;16676;51.202;6.774;2024-02-26T07:21:26;19.40;79.30
29775;DHT22;16676;51.202;6.774;2024-02-26T07:25:27;19.30;73.30
29775;DHT22;16676;51.202;6.774;2024-02-26T07:29:31;19.00;71.40
29775;DHT22;16676;51.202;6.774;2024-02-26T07:33:33;18.70;68.70
29775;DHT22;16676;51.202;6.774;2024-02-26T07:37:34;18.50;65.60
29775;DHT22;16676;51.202;6.774;2024-02-26T07:41:36;18.40;64.40
29775;DHT22;16676;51.202;6.774;2024-02-26T07:45:41;18.30;66.70
29775;DHT22;16676;51.202;6.774;2024-02-26T07:49:43;18.20;67.40
29775;DHT22;16676;51.202;6.774;2024-02-26T07:53:45;18.40;69.30
29775;DHT22;16676;51.202;6.774;2024-02-26T07:57:47;18.50;68.70
29775;DHT22;16676;51.202;6.774;2024-02-26T08:01:51;18.50;70.00
29775;DHT22;16676;51.202;6.774;2024-02-26T08:05:53;18.50;70.90
29775;DHT22;16676;51.202;6.774;2024-02-26T08:09:55;18.50;71.30
29775;DHT22;16676;51.202;6.774;2024-02-26T08:13:58;18.70;72.40
29775;DHT22;16676;51.202;6.774;2024-02-26T08:18:01;19.10;72.60
29775;DHT22;16676;51.202;6.774;2024-02-26T08:22:04;19.50;72.40
29775;DHT22;16676;51.202;6.774;2024-02-26T08:26:06;19.80;72.10
29775;DHT22;16676;51.202;6.774;2024-02-26T08:30:12;20.20;71.90
29775;DHT22;16676;51.202;6.774;2024-02-26T08:34:18;20.40;71.60
29775;DHT22;16676;51.202;6.774;2024-02-26T08:38:20;20.70;71.50
29775;DHT22;16676;51.202;6.774;2024-02-26T08:42:22;20.90;71.30
29775;DHT22;16676;51.202;6.774;2024-02-26T08:46:25;21.10;71.30
29775;DHT22;16676;51.202;6.774;2024-02-26T08:50:28;21.20;71.30
29775;DHT22;16676;51.202;6.774;2024-02-26T08:54:30;21.40;71.30
29775;DHT22;16676;51.202;6.774;2024-02-26T08:58:33;21.50;71.30
29775;DHT22;16676;51.202;6.774;2024-02-26T09:02:35;21.60;71.20
29775;DHT22;16676;51.202;6.774;2024-02-26T09:06:40;21.70;71.70
29775;DHT22;16676;51.202;6.774;2024-02-26T09:10:42;21.80;71.70
29775;DHT22;16676;51.202;6.774;2024-02-26T09:14:44;21.80;71.80
29775;DHT22;16676;51.202;6.774;2024-02-26T09:18:46;21.80;72.00
29775;DHT22;16676;51.202;6.774;2024-02-26T09:22:50;21.80;72.40
29775;DHT22;16676;51.202;6.774;2024-02-26T09:26:52;21.80;72.60
29775;DHT22;16676;51.202;6.774;2024-02-26T09:30:54;21.80;73.10
29775;DHT22;16676;51.202;6.774;2024-02-26T09:34:56;21.90;72.80
29775;DHT22;16676;51.202;6.774;2024-02-26T09:38:59;21.90;73.00
29775;DHT22;16676;51.202;6.774;2024-02-26T09:43:03;21.90;73.20
29775;DHT22;16676;51.202;6.774;2024-02-26T09:47:08;21.90;73.30
29775;DHT22;16676;51.202;6.774;2024-02-26T09:51:11;21.90;73.60
29775;DHT22;16676;51.202;6.774;2024-02-26T09:55:15;21.90;74.20
29775;DHT22;16676;51.202;6.774;2024-02-26T09:59:17;21.90;73.90
29775;DHT22;16676;51.202;6.774;2024-02-26T10:03:21;21.80;74.00
29775;DHT22;16676;51.202;6.774;2024-02-26T10:07:24;21.90;74.20
29775;DHT22;16676;51.202;6.774;2024-02-26T10:11:27;21.90;74.50
29775;DHT22;16676;51.202;6.774;2024-02-26T10:15:30;21.80;74.00
29775;DHT22;16676;51.202;6.774;2024-02-26T10:19:32;21.80;74.30
29775;DHT22;16676;51.202;6.774;2024-02-26T10:23:34;21.80;74.50
29775;DHT22;16676;51.202;6.774;2024-02-26T10:27:37;21.80;74.70
29775;DHT22;16676;51.202;6.774;2024-02-26T10:31:42;21.80;74.50
29775;DHT22;16676;51.202;6.774;2024-02-26T10:35:45;21.80;74.80
29775;DHT22;16676;51.202;6.774;2024-02-26T10:39:47;21.70;75.00
29775;DHT22;16676;51.202;6.774;2024-02-26T10:43:51;21.70;75.50
29775;DHT22;16676;51.202;6.774;2024-02-26T10:47:53;21.70;76.10
29775;DHT22;16676;51.202;6.774;2024-02-26T10:51:56;21.60;75.60
29775;DHT22;16676;51.202;6.774;2024-02-26T10:56:02;21.60;75.70
29775;DHT22;16676;51.202;6.774;2024-02-26T11:00:07;21.50;76.10
29775;DHT22;16676;51.202;6.774;2024-02-26T11:04:13;21.60;76.20
29775;DHT22;16676;51.202;6.774;2024-02-26T11:08:16;21.60;76.30
29775;DHT22;16676;51.202;6.774;2024-02-26T11:12:21;21.50;76.50
29775;DHT22;16676;51.202;6.774;2024-02-26T11:16:26;21.40;77.10
29775;DHT22;16676;51.202;6.774;2024-02-26T11:20:29;21.40;77.30
29775;DHT22;16676;51.202;6.774;2024-02-26T11:24:32;21.40;77.50
29775;DHT22;16676;51.202;6.774;2024-02-26T11:28:34;21.30;77.90
29775;DHT22;16676;51.202;6.774;2024-02-26T11:32:38;21.30;77.80
29775;DHT22;16676;51.202;6.774;2024-02-26T11:36:40;21.30;78.10
29775;DHT22;16676;51.202;6.774;2024-02-26T11:40:43;21.30;78.20
29775;DHT22;16676;51.202;6.774;2024-02-26T11:44:45;21.20;78.40
29775;DHT22;16676;51.202;6.774;2024-02-26T11:48:49;21.20;78.10
29775;DHT22;16676;51.202;6.774;2024-02-26T11:57:29;21.20;78.80
29775;DHT22;16676;51.202;6.774;2024-02-26T12:01:43;21.20;79.00
29775;DHT22;16676;51.202;6.774;2024-02-26T12:05:47;21.20;79.30
29775;DHT22;16676;51.202;6.774;2024-02-26T12:09:50;21.20;79.40
29775;DHT22;16676;51.202;6.774;2024-02-26T12:13:52;21.10;79.50
29775;DHT22;16676;51.202;6.774;2024-02-26T12:17:54;21.10;79.90
29775;DHT22;16676;51.202;6.774;2024-02-26T12:21:57;21.10;80.00
29775;DHT22;16676;51.202;6.774;2024-02-26T12:26:00;21.00;80.30
29775;DHT22;16676;51.202;6.774;2024-02-26T12:30:02;21.00;80.50
29775;DHT22;16676;51.202;6.774;2024-02-26T12:34:05;21.00;80.60
29775;DHT22;16676;51.202;6.774;2024-02-26T12:38:09;21.00;80.60
29775;DHT22;16676;51.202;6.774;2024-02-26T12:42:11;21.00;80.60
29775;DHT22;16676;51.202;6.774;2024-02-26T12:46:13;21.00;80.70
29775;DHT22;16676;51.202;6.774;2024-02-26T12:50:16;21.10;80.60
29775;DHT22;16676;51.202;6.774;2024-02-26T12:54:19;21.00;80.80
29775;DHT22;16676;51.202;6.774;2024-02-26T12:58:22;21.00;80.90
29775;DHT22;16676;51.202;6.774;2024-02-26T13:02:25;21.10;78.10
29775;DHT22;16676;51.202;6.774;2024-02-26T13:06:28;21.00;74.60
29775;DHT22;16676;51.202;6.774;2024-02-26T13:10:31;20.90;73.60
29775;DHT22;16676;51.202;6.774;2024-02-26T13:14:35;20.90;71.30
29775;DHT22;16676;51.202;6.774;2024-02-26T13:18:37;20.80;72.60
29775;DHT22;16676;51.202;6.774;2024-02-26T13:22:39;20.70;72.50
29775;DHT22;16676;51.202;6.774;2024-02-26T13:26:42;20.60;72.40
29775;DHT22;16676;51.202;6.774;2024-02-26T13:30:50;20.50;72.60
29775;DHT22;16676;51.202;6.774;2024-02-26T13:35:04;20.50;72.50
29775;DHT22;16676;51.202;6.774;2024-02-26T13:39:07;20.50;72.70
29775;DHT22;16676;51.202;6.774;2024-02-26T13:43:15;20.40;72.90
29775;DHT22;16676;51.202;6.774;2024-02-26T13:47:17;20.40;72.90
29775;DHT22;16676;51.202;6.774;2024-02-26T13:51:19;20.40;72.80
29775;DHT22;16676;51.202;6.774;2024-02-26T13:55:21;20.30;72.50
29775;DHT22;16676;51.202;6.774;2024-02-26T13:59:26;20.30;72.50
29775;DHT22;16676;51.202;6.774;2024-02-26T14:03:28;20.10;72.70
29775;DHT22;16676;51.202;6.774;2024-02-26T14:07:30;20.20;73.60
29775;DHT22;16676;51.202;6.774;2024-02-26T14:11:32;20.20;74.00
29775;DHT22;16676;51.202;6.774;2024-02-26T14:15:36;20.20;74.30
29775;DHT22;16676;51.202;6.774;2024-02-26T14:19:40;20.30;74.60
29775;DHT22;16676;51.202;6.774;2024-02-26T14:23:44;20.40;74.90
29775;DHT22;16676;51.202;6.774;2024-02-26T14:27:46;20.40;75.10
29775;DHT22;16676;51.202;6.774;2024-02-26T14:31:50;20.50;75.10
29775;DHT22;16676;51.202;6.774;2024-02-26T14:35:52;20.50;75.10
29775;DHT22;16676;51.202;6.774;2024-02-26T14:39:54;20.50;75.40
29775;DHT22;16676;51.202;6.774;2024-02-26T14:43:56;20.50;75.50
29775;DHT22;16676;51.202;6.774;2024-02-26T14:47:59;20.50;75.90
29775;DHT22;16676;51.202;6.774;2024-02-26T14:52:01;20.50;76.00
29775;DHT22;16676;51.202;6.774;2024-02-26T14:56:04;20.50;76.50
29775;DHT22;16676;51.202;6.774;2024-02-26T15:00:07;20.50;76.60
29775;DHT22;16676;51.202;6.774;2024-02-26T15:04:11;20.50;77.40
29775;DHT22;16676;51.202;6.774;2024-02-26T15:08:13;20.60;76.70
29775;DHT22;16676;51.202;6.774;2024-02-26T15:12:17;20.60;76.60
29775;DHT22;16676;51.202;6.774;2024-02-26T15:16:21;20.60;76.60
29775;DHT22;16676;51.202;6.774;2024-02-26T15:20:24;20.60;76.70
29775;DHT22;16676;51.202;6.774;2024-02-26T15:24:26;20.60;77.00
29775;DHT22;16676;51.202;6.774;2024-02-26T15:28:28;20.60;77.10
29775;DHT22;16676;51.202;6.774;2024-02-26T15:32:30;20.60;77.10
29775;DHT22;16676;51.202;6.774;2024-02-26T15:36:34;20.60;77.30
29775;DHT22;16676;51.202;6.774;2024-02-26T15:40:35;20.60;77.50
29775;DHT22;16676;51.202;6.774;2024-02-26T15:44:37;20.60;77.70
29775;DHT22;16676;51.202;6.774;2024-02-26T15:48:39;20.60;77.80
29775;DHT22;16676;51.202;6.774;2024-02-26T15:52:43;20.60;77.70
29775;DHT22;16676;51.202;6.774;2024-02-26T15:56:45;20.60;78.00
29775;DHT22;16676;51.202;6.774;2024-02-26T16:00:47;20.60;78.10
29775;DHT22;16676;51.202;6.774;2024-02-26T16:04:49;20.60;78.30
29775;DHT22;16676;51.202;6.774;2024-02-26T16:08:52;20.60;78.40
29775;DHT22;16676;51.202;6.774;2024-02-26T16:12:57;20.70;78.40
29775;DHT22;16676;51.202;6.774;2024-02-26T16:17:03;20.60;78.60
29775;DHT22;16676;51.202;6.774;2024-02-26T16:21:08;20.60;78.70
29775;DHT22;16676;51.202;6.774;2024-02-26T16:25:12;20.70;78.40
29775;DHT22;16676;51.202;6.774;2024-02-26T16:29:14;20.70;78.60
29775;DHT22;16676;51.202;6.774;2024-02-26T16:33:16;20.70;78.50
29775;DHT22;16676;51.202;6.774;2024-02-26T16:37:18;20.70;78.70
29775;DHT22;16676;51.202;6.774;2024-02-26T16:41:22;20.70;78.70
29775;DHT22;16676;51.202;6.774;2024-02-26T16:45:25;20.70;78.60
29775;DHT22;16676;51.202;6.774;2024-02-26T16:49:28;20.70;78.80
29775;DHT22;16676;51.202;6.774;2024-02-26T16:53:30;20.70;78.90
29775;DHT22;16676;51.202;6.774;2024-02-26T16:57:33;20.70;78.70
29775;DHT22;16676;51.202;6.774;2024-02-26T17:01:35;20.70;78.60
29775;DHT22;16676;51.202;6.774;2024-02-26T17:05:37;20.80;78.60
29775;DHT22;16676;51.202;6.774;2024-02-26T17:09:39;20.80;78.50
29775;DHT22;16676;51.202;6.774;2024-02-26T17:13:42;20.80;78.50
29775;DHT22;16676;51.202;6.774;2024-02-26T17:17:44;20.80;78.40
29775;DHT22;16676;51.202;6.774;2024-02-26T17:21:46;20.80;78.40
29775;DHT22;16676;51.202;6.774;2024-02-26T17:25:48;20.80;78.30
29775;DHT22;16676;51.202;6.774;2024-02-26T17:29:51;20.80;78.40
29775;DHT22;16676;51.202;6.774;2024-02-26T17:33:54;20.80;78.30
29775;DHT22;16676;51.202;6.774;2024-02-26T17:37:55;20.80;78.40
29775;DHT22;16676;51.202;6.774;2024-02-26T17:41:58;20.80;78.30
29775;DHT22;16676;51.202;6.774;2024-02-26T17:46:02;20.80;78.30
29775;DHT22;16676;51.202;6.774;2024-02-26T17:50:05;20.70;78.20
29775;DHT22;16676;51.202;6.774;2024-02-26T17:54:07;20.70;78.20
29775;DHT22;16676;51.202;6.774;2024-02-26T17:58:09;20.60;78.60
29775;DHT22;16676;51.202;6.774;2024-02-26T18:02:12;20.60;78.80
29775;DHT22;16676;51.202;6.774;2024-02-26T18:06:14;20.50;78.20
29775;DHT22;16676;51.202;6.774;2024-02-26T18:10:16;20.50;78.20
29775;DHT22;16676;51.202;6.774;2024-02-26T18:14:19;20.40;78.10
29775;DHT22;16676;51.202;6.774;2024-02-26T18:18:23;20.30;78.20
29775;DHT22;16676;51.202;6.774;2024-02-26T18:22:25;20.40;78.10
29775;DHT22;16676;51.202;6.774;2024-02-26T18:26:27;20.30;78.10
29775;DHT22;16676;51.202;6.774;2024-02-26T18:30:29;20.30;78.00
29775;DHT22;16676;51.202;6.774;2024-02-26T18:34:33;20.30;77.80
29775;DHT22;16676;51.202;6.774;2024-02-26T18:38:36;20.30;78.50
29775;DHT22;16676;51.202;6.774;2024-02-26T18:42:38;20.30;77.80
29775;DHT22;16676;51.202;6.774;2024-02-26T18:46:43;20.20;78.10
29775;DHT22;16676;51.202;6.774;2024-02-26T18:50:47;20.20;77.80
29775;DHT22;16676;51.202;6.774;2024-02-26T18:54:49;20.10;78.20
29775;DHT22;16676;51.202;6.774;2024-02-26T18:58:51;20.10;78.20
29775;DHT22;16676;51.202;6.774;2024-02-26T19:02:53;20.10;78.10
29775;DHT22;16676;51.202;6.774;2024-02-26T19:06:56;20.10;78.10
29775;DHT22;16676;51.202;6.774;2024-02-26T19:10:58;20.00;78.10
29775;DHT22;16676;51.202;6.774;2024-02-26T19:15:00;20.00;78.30
29775;DHT22;16676;51.202;6.774;2024-02-26T19:19:02;19.90;78.30
29775;DHT22;16676;51.202;6.774;2024-02-26T19:23:05;19.90;78.50
29775;DHT22;16676;51.202;6.774;2024-02-26T19:27:07;19.90;78.60
29775;DHT22;16676;51.202;6.774;2024-02-26T19:31:09;19.80;78.50
29775;DHT22;16676;51.202;6.774;2024-02-26T19:35:12;19.80;78.70
29775;DHT22;16676;51.202;6.774;2024-02-26T19:39:16;19.80;78.70
29775;DHT22;16676;51.202;6.774;2024-02-26T19:43:18;19.80;78.50
29775;DHT22;16676;51.202;6.774;2024-02-26T19:47:20;19.70;78.70
29775;DHT22;16676;51.202;6.774;2024-02-26T19:51:22;19.80;78.80
29775;DHT22;16676;51.202;6.774;2024-02-26T19:55:26;19.80;78.70
29775;DHT22;16676;51.202;6.774;2024-02-26T19:59:28;19.70;79.00
29775;DHT22;16676;51.202;6.774;2024-02-26T20:03:30;19.80;78.90
29775;DHT22;16676;51.202;6.774;2024-02-26T20:07:32;19.70;78.90
29775;DHT22;16676;51.202;6.774;2024-02-26T20:11:35;19.60;78.70
29775;DHT22;16676;51.202;6.774;2024-02-26T20:15:37;19.60;79.30
29775;DHT22;16676;51.202;6.774;2024-02-26T20:19:39;19.50;79.60
29775;DHT22;16676;51.202;6.774;2024-02-26T20:23:43;19.60;78.90
29775;DHT22;16676;51.202;6.774;2024-02-26T20:27:46;19.60;78.90
29775;DHT22;16676;51.202;6.774;2024-02-26T20:31:48;19.60;78.70
29775;DHT22;16676;51.202;6.774;2024-02-26T20:35:50;19.50;79.00
29775;DHT22;16676;51.202;6.774;2024-02-26T20:39:52;19.50;79.30
29775;DHT22;16676;51.202;6.774;2024-02-26T20:43:55;19.40;79.10
29775;DHT22;16676;51.202;6.774;2024-02-26T20:47:58;19.40;79.20
29775;DHT22;16676;51.202;6.774;2024-02-26T20:52:00;19.40;79.30
29775;DHT22;16676;51.202;6.774;2024-02-26T20:56:02;19.40;79.60
29775;DHT22;16676;51.202;6.774;2024-02-26T21:00:06;19.30;79.70
29775;DHT22;16676;51.202;6.774;2024-02-26T21:04:09;19.30;79.60
29775;DHT22;16676;51.202;6.774;2024-02-26T21:08:11;19.30;80.40
29775;DHT22;16676;51.202;6.774;2024-02-26T21:12:15;19.30;79.30
29775;DHT22;16676;51.202;6.774;2024-02-26T21:16:19;19.30;79.80
29775;DHT22;16676;51.202;6.774;2024-02-26T21:20:21;19.30;79.60
29775;DHT22;16676;51.202;6.774;2024-02-26T21:24:25;19.30;79.50
29775;DHT22;16676;51.202;6.774;2024-02-26T21:28:27;19.30;79.50
29775;DHT22;16676;51.202;6.774;2024-02-26T21:32:31;19.20;79.50
29775;DHT22;16676;51.202;6.774;2024-02-26T21:36:34;19.20;79.70
29775;DHT22;16676;51.202;6.774;2024-02-26T21:40:36;19.20;79.90
29775;DHT22;16676;51.202;6.774;2024-02-26T21:44:38;19.20;79.40
29775;DHT22;16676;51.202;6.774;2024-02-26T21:48:41;19.20;79.40
29775;DHT22;16676;51.202;6.774;2024-02-26T21:52:44;19.20;79.40
29775;DHT22;16676;51.202;6.774;2024-02-26T21:56:46;19.20;79.40
29775;DHT22;16676;51.202;6.774;2024-02-26T22:00:47;19.20;79.30
29775;DHT22;16676;51.202;6.774;2024-02-26T22:04:51;19.20;79.50
29775;DHT22;16676;51.202;6.774;2024-02-26T22:08:54;19.20;79.20
29775;DHT22;16676;51.202;6.774;2024-02-26T22:12:56;19.20;79.30
29775;DHT22;16676;51.202;6.774;2024-02-26T22:16:58;19.10;79.60
29775;DHT22;16676;51.202;6.774;2024-02-26T22:21:02;19.20;79.30
29775;DHT22;16676;51.202;6.774;2024-02-26T22:25:04;19.20;79.40
29775;DHT22;16676;51.202;6.774;2024-02-26T22:29:06;19.20;79.00
29775;DHT22;16676;51.202;6.774;2024-02-26T22:33:08;19.20;79.10
29775;DHT22;16676;51.202;6.774;2024-02-26T22:37:11;19.20;79.20
29775;DHT22;16676;51.202;6.774;2024-02-26T22:41:15;19.10;79.30
29775;DHT22;16676;51.202;6.774;2024-02-26T22:45:17;19.10;79.00
29775;DHT22;16676;51.202;6.774;2024-02-26T22:49:19;19.20;79.20
29775;DHT22;16676;51.202;6.774;2024-02-26T22:53:22;19.10;79.40
29775;DHT22;16676;51.202;6.774;2024-02-26T22:57:24;19.10;79.40
29775;DHT22;16676;51.202;6.774;2024-02-26T23:01:26;19.10;79.50
29775;DHT22;16676;51.202;6.774;2024-02-26T23:05:29;19.10;79.20
29775;DHT22;16676;51.202;6.774;2024-02-26T23:09:32;19.10;78.80
29775;DHT22;16676;51.202;6.774;2024-02-26T23:13:35;19.10;79.00
29775;DHT22;16676;51.202;6.774;2024-02-26T23:17:40;19.00;79.60
29775;DHT22;16676;51.202;6.774;2024-02-26T23:21:42;19.10;79.40
29775;DHT22;16676;51.202;6.774;2024-02-26T23:25:45;19.00;78.90
29775;DHT22;16676;51.202;6.774;2024-02-26T23:29:47;19.10;79.00
29775;DHT22;16676;51.202;6.774;2024-02-26T23:33:49;19.00;79.10
29775;DHT22;16676;51.202;6.774;2024-02-26T23:37:51;19.00;79.10
29775;DHT22;16676;51.202;6.774;2024-02-26T23:41:54;19.00;79.30
29775;DHT22;16676;51.202;6.774;2024-02-26T23:45:56;19.00;79.60
29775;DHT22;16676;51.202;6.774;2024-02-26T23:49:58;19.00;79.50
29775;DHT22;16676;51.202;6.774;2024-02-26T23:54:00;19.00;79.00
29775;DHT22;16676;51.202;6.774;2024-02-26T23:58:03;19.00;78.90
